• Join FlightAware (Why Join?)
  • Login
  • US Flag GB Flag 
03:52 EDT


 

Airport Tracker/Info


-or-


 

Live Flight TrackerFlight Track Log ✈ N52712 ✈ 11-Nov-2013 ✈ KBED - 6B6

Flight Track Log - Related Links

Times and Time Zones

All times are in EST time to prevent confusion due to time zone crossing. See the N52712 flight status page for this flight to view local times or setup timezone preferences in your user account.

Time Position Orientation Groundspeed Altitude Reporting Facility
EST Latitude Longitude Course Direction KTS MPH feet Rate Location/Type
11:00 42.4833 -71.3167 270° West 71 82 1,900  Level KA90
11:01 42.5000 -71.3500 304° West 77 89 2,700 360 Climbing KA90
11:02 42.5000 -71.3667 270° West 85 98 2,700  Level KA90
11:03 42.5167 -71.4000 304° West 98 113 2,700  Level KA90
11:04 42.5333 -71.4333 304° West 98 113 2,700  Level KA90
11:05 42.4633 -71.4541 270° West  Level Estimated
11:05 42.5500 -71.4667 304° West 92 106 2,700  Level KA90
11:06 42.5667 -71.4833 324° Northwest 111 128 2,700 -180 Level KA90
11:07 42.5833 -71.4833 360° North 100 115 2,400 -180 Descending KA90
11:08 42.5667 -71.4833 180° South 87 100 2,400 -120 Level KA90
11:09 42.5500 -71.4833 180° South 81 93 2,200 -360 Descending KA90
11:10 42.5167 -71.5000 200° South 88 101 1,700 -480 Descending KA90
11:11 42.5000 -71.5000 180° South 81 93 1,300 -300 Descending KA90
11:12 42.4833 -71.5167 216° Southwest 81 93 1,200 120 Descending KA90
11:13 42.4500 -71.5000 160° South 106 122 1,600 600 Climbing KA90
11:14 42.4667 -71.5000 360° North 103 119 2,500 540 Climbing KA90
11:15 42.5000 -71.4833 20° North 112 129 2,700  Climbing KA90
11:16 42.5333 -71.4833 360° North 110 127 2,500 -120 Descending KA90
11:17 42.5500 -71.4833 360° North 104 120 2,500  Level KA90
11:18 42.5833 -71.4833 360° North 122 140 2,500  Level KA90
11:19 42.5667 -71.4667 144° Southeast 95 109 2,500  Level KA90
11:20 42.5500 -71.4833 216° Southwest 96 110 2,500  Level KA90
11:21 42.5667 -71.5000 324° Northwest 114 131 2,500  Level KA90
11:22 42.5833 -71.4833 36° Northeast 115 132 2,500 -60 Level KA90
11:23 42.5667 -71.4833 180° South 103 119 2,400  Descending KA90
11:24 42.5500 -71.5000 216° Southwest 104 120 2,600  Climbing KA90
11:25 42.5667 -71.5000 360° North 133 153 2,400 -120 Descending KA90
11:26 42.5833 -71.4833 36° Northeast 107 123 2,400 60 Level KA90
11:27 42.6000 -71.4500 56° Northeast 114 131 2,600  Climbing KA90
11:28 42.6167 -71.4167 56° Northeast 115 132 2,500 -60 Descending KA90
11:29 42.6333 -71.3667 66° East 110 127 2,500  Level KA90
11:30 42.6500 -71.3333 56° Northeast 112 129 2,500  Level KA90
11:31 42.6667 -71.3000 56° Northeast 114 131 2,500  Level KA90
11:32 42.6667 -71.2667 90° East 109 125 2,500  Level KA90
11:33 42.6833 -71.2167 66° East 114 131 2,500  Level KA90
11:34 42.7000 -71.1833 56° Northeast 120 138 2,500 60 Level KA90
11:34 42.7133 -71.1739 27° Northeast 117 135 2,600 60 Climbing Boston Center
11:35 42.7311 -71.1353 58° Northeast 114 131 2,600  Level Boston Center
11:36 42.7425 -71.0972 68° East 110 127 2,600  Level Boston Center
11:37 42.7664 -71.0697 40° Northeast 113 130 2,600  Level Boston Center
11:38 42.7878 -71.0400 46° Northeast 111 128 2,600  Level Boston Center
11:40 42.8167 -71.0350 North 104 120 2,700  Climbing Boston Center
11:41 42.8175 -71.0172 86° East 86 99 2,600 -240 Descending Boston Center
11:42 42.7986 -71.0319 210° Southwest 78 90 2,300 -360 Descending Boston Center
11:43 42.7811 -71.0478 214° Southwest 76 87 1,900 -300 Descending Boston Center
11:44 42.7633 -71.0658 217° Southwest 74 85 1,700 -300 Descending Boston Center
11:45 42.7489 -71.0900 231° Southwest 82 94 1,300 -420 Descending Boston Center
11:46 42.7306 -71.1092 218° Southwest 84 97 900 60 Descending Boston Center
11:47 42.7119 -71.1283 217° Southwest 84 97 1,500 600 Climbing Boston Center
11:48 42.6878 -71.1417 202° Southwest 91 105 2,200 240 Climbing Boston Center
11:49 42.6619 -71.1272 158° South 99 114 2,100 -60 Descending Boston Center
11:50 42.6333 -71.1150 163° South 105 121 2,100  Level Boston Center
11:51 42.6061 -71.1028 162° South 102 117 2,100 -60 Level Boston Center
11:52 42.5769 -71.0875 159° South 104 120 2,000  Descending Boston Center
11:53 42.6000 -71.0667 34° Northeast 104 120 2,100 60 Climbing Boston Center
11:54 42.5967 -71.0825 254° West 106 122 2,200 -60 Climbing Boston Center
11:55 42.5667 -71.0667 159° South 105 121 2,000 -120 Descending KA90
11:56 42.5333 -71.0500 160° South 101 116 2,000  Level KA90
11:57 42.5167 -71.0667 216° Southwest 95 109 2,000  Level KA90
11:58 42.4833 -71.0833 200° South 86 99 2,000  Level KA90
11:59 42.4667 -71.1000 216° Southwest 101 116 2,000  Level KA90
12:00 42.4500 -71.1333 236° Southwest 82 94 2,000  Level KA90
12:01 42.4667 -71.1500 324° Northwest 84 97 2,000 -300 Level KA90
12:02 42.4667 -71.1833 270° West 68 78 1,500 -480 Descending KA90
12:03 42.4667 -71.2167 270° West 78 90 1,000 -420 Descending KA90
12:04 42.4667 -71.2500 270° West 86 99 700 -360 Descending KA90
12:05 42.4667 -71.2667 270° West 55 63 400 -360 Descending KA90